TIST/STT METAR and TAF weather

Enter ICAO airport designator
Station Type Date Time Source
TIST METAR 2022/01/26 14:53 UTC NOAA

TIST 261453Z 10008KT 070V140 10SM CLR 29/16 A3006 RMK AO2 SLP180 T02890161 50010


Station Type Date Time Source
TIST Decoded METAR 2022/01/26 14:53 UTC NOAA

Charlotte Amalie St. Thomas, Cyril E. King Airport, Virgin Islands (TIST) 18-20N 064-59W
Jan 26, 2022 - 09:53 AM EST / 2022.01.26 1453 UTC
Wind: from the E (100 degrees) at 9 MPH (8 KT) (direction variable):0
Visibility: 10 mile(s):0
Sky conditions: clear
Temperature: 84.0 F (28.9 C)
Dew Point: 61.0 F (16.1 C)
Relative Humidity: 45%
Pressure (altimeter): 30.06 in. Hg (1017 hPa)
Pressure tendency: 0.03 inches (1.0 hPa) higher than three hours ago
ob: TIST 261453Z 10008KT 070V140 10SM CLR 29/16 A3006 RMK AO2 SLP180 T02890161 50010
cycle: 15

Station Type Date Time Source
TIST TAF 2022/01/26 12:31 UTC NOAA

TAF TIST 261123Z 2612/2712 08005KT P6SM VCSH SCT025
FM261400 11013KT P6SM FEW025 SCT040
FM262300 08007KT P6SM FEW025

Example: see airport list